sensor_id;sensor_type;location;lat;lon;timestamp;P1;durP1;ratioP1;P2;durP2;ratioP2
6177;SDS011;3122;48.208;11.174;2023-06-10T00:03:37;14.73;;;11.27;;
6177;SDS011;3122;48.208;11.174;2023-06-10T00:08:37;15.53;;;11.40;;
6177;SDS011;3122;48.208;11.174;2023-06-10T00:13:39;11.93;;;10.90;;
6177;SDS011;3122;48.208;11.174;2023-06-10T00:18:40;12.87;;;11.67;;
6177;SDS011;3122;48.208;11.174;2023-06-10T00:23:41;13.07;;;11.43;;
6177;SDS011;3122;48.208;11.174;2023-06-10T00:28:42;12.57;;;11.33;;
6177;SDS011;3122;48.208;11.174;2023-06-10T00:33:44;12.53;;;11.23;;
6177;SDS011;3122;48.208;11.174;2023-06-10T00:38:45;11.70;;;10.60;;
6177;SDS011;3122;48.208;11.174;2023-06-10T00:43:46;10.97;;;9.87;;
6177;SDS011;3122;48.208;11.174;2023-06-10T00:48:46;11.00;;;10.00;;
6177;SDS011;3122;48.208;11.174;2023-06-10T00:53:47;10.47;;;8.80;;
6177;SDS011;3122;48.208;11.174;2023-06-10T00:58:48;10.60;;;9.60;;
6177;SDS011;3122;48.208;11.174;2023-06-10T01:03:48;14.20;;;9.63;;
6177;SDS011;3122;48.208;11.174;2023-06-10T01:08:55;9.87;;;8.93;;
6177;SDS011;3122;48.208;11.174;2023-06-10T01:13:59;11.13;;;10.03;;
6177;SDS011;3122;48.208;11.174;2023-06-10T01:19:00;12.83;;;11.30;;
6177;SDS011;3122;48.208;11.174;2023-06-10T01:24:01;12.27;;;11.17;;
6177;SDS011;3122;48.208;11.174;2023-06-10T01:29:07;11.63;;;10.30;;
6177;SDS011;3122;48.208;11.174;2023-06-10T01:34:16;12.43;;;11.23;;
6177;SDS011;3122;48.208;11.174;2023-06-10T01:39:18;11.87;;;10.67;;
6177;SDS011;3122;48.208;11.174;2023-06-10T01:44:22;12.27;;;10.97;;
6177;SDS011;3122;48.208;11.174;2023-06-10T01:49:23;10.43;;;9.43;;
6177;SDS011;3122;48.208;11.174;2023-06-10T01:54:25;11.03;;;9.93;;
6177;SDS011;3122;48.208;11.174;2023-06-10T01:59:26;12.00;;;10.80;;
6177;SDS011;3122;48.208;11.174;2023-06-10T02:04:26;10.70;;;9.60;;
6177;SDS011;3122;48.208;11.174;2023-06-10T02:09:27;11.70;;;10.60;;
6177;SDS011;3122;48.208;11.174;2023-06-10T02:14:27;10.60;;;9.60;;
6177;SDS011;3122;48.208;11.174;2023-06-10T02:19:28;11.03;;;9.57;;
6177;SDS011;3122;48.208;11.174;2023-06-10T02:24:28;11.20;;;10.20;;
6177;SDS011;3122;48.208;11.174;2023-06-10T02:29:29;11.40;;;10.23;;
6177;SDS011;3122;48.208;11.174;2023-06-10T02:34:29;11.40;;;10.20;;
6177;SDS011;3122;48.208;11.174;2023-06-10T02:39:31;11.20;;;10.10;;
6177;SDS011;3122;48.208;11.174;2023-06-10T02:44:31;11.67;;;10.53;;
6177;SDS011;3122;48.208;11.174;2023-06-10T02:49:32;15.60;;;10.80;;
6177;SDS011;3122;48.208;11.174;2023-06-10T02:54:32;11.30;;;10.20;;
6177;SDS011;3122;48.208;11.174;2023-06-10T02:59:33;11.47;;;10.27;;
6177;SDS011;3122;48.208;11.174;2023-06-10T03:04:33;11.40;;;10.13;;
6177;SDS011;3122;48.208;11.174;2023-06-10T03:09:34;16.33;;;11.00;;
6177;SDS011;3122;48.208;11.174;2023-06-10T03:14:35;13.47;;;10.00;;
6177;SDS011;3122;48.208;11.174;2023-06-10T03:19:35;12.00;;;10.00;;
6177;SDS011;3122;48.208;11.174;2023-06-10T03:24:37;11.80;;;10.60;;
6177;SDS011;3122;48.208;11.174;2023-06-10T03:29:40;11.00;;;9.67;;
6177;SDS011;3122;48.208;11.174;2023-06-10T03:34:40;13.87;;;11.03;;
6177;SDS011;3122;48.208;11.174;2023-06-10T03:39:41;10.60;;;9.60;;
6177;SDS011;3122;48.208;11.174;2023-06-10T03:44:42;11.23;;;10.10;;
6177;SDS011;3122;48.208;11.174;2023-06-10T03:49:42;13.17;;;11.57;;
6177;SDS011;3122;48.208;11.174;2023-06-10T03:54:43;11.53;;;10.33;;
6177;SDS011;3122;48.208;11.174;2023-06-10T03:59:44;12.10;;;10.87;;
6177;SDS011;3122;48.208;11.174;2023-06-10T04:04:44;12.17;;;10.30;;
6177;SDS011;3122;48.208;11.174;2023-06-10T04:09:45;12.17;;;10.93;;
6177;SDS011;3122;48.208;11.174;2023-06-10T04:14:46;12.47;;;11.10;;
6177;SDS011;3122;48.208;11.174;2023-06-10T04:19:47;12.83;;;11.53;;
6177;SDS011;3122;48.208;11.174;2023-06-10T04:24:48;13.67;;;12.27;;
6177;SDS011;3122;48.208;11.174;2023-06-10T04:29:48;12.23;;;10.93;;
6177;SDS011;3122;48.208;11.174;2023-06-10T04:34:49;12.77;;;11.47;;
6177;SDS011;3122;48.208;11.174;2023-06-10T04:39:49;12.50;;;11.20;;
6177;SDS011;3122;48.208;11.174;2023-06-10T04:44:50;15.87;;;11.97;;
6177;SDS011;3122;48.208;11.174;2023-06-10T04:49:51;11.73;;;10.47;;
6177;SDS011;3122;48.208;11.174;2023-06-10T04:54:51;12.07;;;10.97;;
6177;SDS011;3122;48.208;11.174;2023-06-10T04:59:52;14.67;;;11.40;;
6177;SDS011;3122;48.208;11.174;2023-06-10T05:04:53;13.57;;;11.33;;
6177;SDS011;3122;48.208;11.174;2023-06-10T05:09:55;12.90;;;11.50;;
6177;SDS011;3122;48.208;11.174;2023-06-10T05:14:55;13.67;;;11.50;;
6177;SDS011;3122;48.208;11.174;2023-06-10T05:19:56;15.07;;;11.20;;
6177;SDS011;3122;48.208;11.174;2023-06-10T05:24:56;14.60;;;11.67;;
6177;SDS011;3122;48.208;11.174;2023-06-10T05:29:57;14.37;;;11.07;;
6177;SDS011;3122;48.208;11.174;2023-06-10T05:34:58;12.97;;;11.57;;
6177;SDS011;3122;48.208;11.174;2023-06-10T05:40:00;13.90;;;12.40;;
6177;SDS011;3122;48.208;11.174;2023-06-10T05:45:00;14.53;;;12.13;;
6177;SDS011;3122;48.208;11.174;2023-06-10T05:50:02;13.23;;;11.87;;
6177;SDS011;3122;48.208;11.174;2023-06-10T05:55:07;13.97;;;12.03;;
6177;SDS011;3122;48.208;11.174;2023-06-10T06:00:08;14.77;;;12.40;;
6177;SDS011;3122;48.208;11.174;2023-06-10T06:05:09;14.93;;;12.90;;
6177;SDS011;3122;48.208;11.174;2023-06-10T06:10:10;17.50;;;13.53;;
6177;SDS011;3122;48.208;11.174;2023-06-10T06:15:10;14.80;;;13.10;;
6177;SDS011;3122;48.208;11.174;2023-06-10T06:20:11;13.90;;;12.50;;
6177;SDS011;3122;48.208;11.174;2023-06-10T06:25:12;12.73;;;11.43;;
6177;SDS011;3122;48.208;11.174;2023-06-10T06:30:12;13.73;;;12.33;;
6177;SDS011;3122;48.208;11.174;2023-06-10T06:35:13;14.90;;;12.97;;
6177;SDS011;3122;48.208;11.174;2023-06-10T06:40:14;13.83;;;12.40;;
6177;SDS011;3122;48.208;11.174;2023-06-10T06:45:14;14.60;;;12.70;;
6177;SDS011;3122;48.208;11.174;2023-06-10T06:50:15;15.20;;;12.50;;
6177;SDS011;3122;48.208;11.174;2023-06-10T06:55:16;13.83;;;11.70;;
6177;SDS011;3122;48.208;11.174;2023-06-10T07:00:17;13.73;;;12.33;;
6177;SDS011;3122;48.208;11.174;2023-06-10T07:05:18;14.87;;;12.50;;
6177;SDS011;3122;48.208;11.174;2023-06-10T07:10:18;14.40;;;11.60;;
6177;SDS011;3122;48.208;11.174;2023-06-10T07:15:21;12.07;;;10.80;;
6177;SDS011;3122;48.208;11.174;2023-06-10T07:20:22;12.70;;;11.30;;
6177;SDS011;3122;48.208;11.174;2023-06-10T07:25:23;11.07;;;9.90;;
6177;SDS011;3122;48.208;11.174;2023-06-10T07:30:23;11.33;;;10.13;;
6177;SDS011;3122;48.208;11.174;2023-06-10T07:35:24;9.57;;;8.40;;
6177;SDS011;3122;48.208;11.174;2023-06-10T07:40:25;11.33;;;9.70;;
6177;SDS011;3122;48.208;11.174;2023-06-10T07:45:25;12.87;;;9.17;;
6177;SDS011;3122;48.208;11.174;2023-06-10T07:50:26;10.60;;;9.07;;
6177;SDS011;3122;48.208;11.174;2023-06-10T07:55:26;10.23;;;8.00;;
6177;SDS011;3122;48.208;11.174;2023-06-10T08:00:27;10.03;;;8.87;;
6177;SDS011;3122;48.208;11.174;2023-06-10T08:05:28;8.57;;;7.77;;
6177;SDS011;3122;48.208;11.174;2023-06-10T08:10:29;7.70;;;7.00;;
6177;SDS011;3122;48.208;11.174;2023-06-10T08:15:29;8.43;;;7.60;;
6177;SDS011;3122;48.208;11.174;2023-06-10T08:20:30;8.50;;;6.80;;
6177;SDS011;3122;48.208;11.174;2023-06-10T08:25:30;7.40;;;6.63;;
6177;SDS011;3122;48.208;11.174;2023-06-10T08:30:31;7.67;;;6.17;;
6177;SDS011;3122;48.208;11.174;2023-06-10T08:35:31;7.13;;;6.50;;
6177;SDS011;3122;48.208;11.174;2023-06-10T08:40:32;6.90;;;6.20;;
6177;SDS011;3122;48.208;11.174;2023-06-10T08:45:37;6.93;;;6.33;;
6177;SDS011;3122;48.208;11.174;2023-06-10T08:50:37;8.10;;;5.80;;
6177;SDS011;3122;48.208;11.174;2023-06-10T08:55:40;6.90;;;6.30;;
6177;SDS011;3122;48.208;11.174;2023-06-10T09:00:42;6.67;;;6.07;;
6177;SDS011;3122;48.208;11.174;2023-06-10T09:05:43;6.80;;;6.20;;
6177;SDS011;3122;48.208;11.174;2023-06-10T09:10:44;6.80;;;6.20;;
6177;SDS011;3122;48.208;11.174;2023-06-10T09:15:45;7.67;;;6.87;;
6177;SDS011;3122;48.208;11.174;2023-06-10T09:20:46;7.63;;;6.93;;
6177;SDS011;3122;48.208;11.174;2023-06-10T09:25:48;7.80;;;7.10;;
6177;SDS011;3122;48.208;11.174;2023-06-10T09:31:05;8.83;;;6.57;;
6177;SDS011;3122;48.208;11.174;2023-06-10T09:36:07;11.73;;;7.37;;
6177;SDS011;3122;48.208;11.174;2023-06-10T09:41:07;7.33;;;6.63;;
6177;SDS011;3122;48.208;11.174;2023-06-10T09:46:14;6.83;;;6.23;;
6177;SDS011;3122;48.208;11.174;2023-06-10T09:51:16;7.60;;;6.40;;
6177;SDS011;3122;48.208;11.174;2023-06-10T09:56:17;8.60;;;7.30;;
6177;SDS011;3122;48.208;11.174;2023-06-10T10:01:18;6.30;;;5.80;;
6177;SDS011;3122;48.208;11.174;2023-06-10T10:06:19;6.60;;;5.57;;
6177;SDS011;3122;48.208;11.174;2023-06-10T10:11:20;6.80;;;6.10;;
6177;SDS011;3122;48.208;11.174;2023-06-10T10:16:27;6.00;;;5.50;;
6177;SDS011;3122;48.208;11.174;2023-06-10T10:21:35;6.20;;;5.70;;
6177;SDS011;3122;48.208;11.174;2023-06-10T10:26:44;6.70;;;5.97;;
6177;SDS011;3122;48.208;11.174;2023-06-10T10:31:47;6.80;;;6.20;;
6177;SDS011;3122;48.208;11.174;2023-06-10T10:36:50;6.50;;;5.97;;
6177;SDS011;3122;48.208;11.174;2023-06-10T10:41:51;6.20;;;5.67;;
6177;SDS011;3122;48.208;11.174;2023-06-10T10:46:52;6.10;;;5.57;;
6177;SDS011;3122;48.208;11.174;2023-06-10T10:51:54;6.50;;;6.00;;
6177;SDS011;3122;48.208;11.174;2023-06-10T11:02:43;6.40;;;5.90;;
6177;SDS011;3122;48.208;11.174;2023-06-10T11:07:52;6.57;;;5.97;;
6177;SDS011;3122;48.208;11.174;2023-06-10T11:12:57;6.20;;;5.70;;
6177;SDS011;3122;48.208;11.174;2023-06-10T11:18:08;6.23;;;5.73;;
6177;SDS011;3122;48.208;11.174;2023-06-10T11:28:32;6.27;;;5.77;;
6177;SDS011;3122;48.208;11.174;2023-06-10T11:33:33;6.27;;;5.67;;
6177;SDS011;3122;48.208;11.174;2023-06-10T11:38:33;6.70;;;5.70;;
6177;SDS011;3122;48.208;11.174;2023-06-10T11:43:34;6.60;;;6.10;;
6177;SDS011;3122;48.208;11.174;2023-06-10T11:48:35;7.10;;;6.50;;
6177;SDS011;3122;48.208;11.174;2023-06-10T11:53:36;6.23;;;5.70;;
6177;SDS011;3122;48.208;11.174;2023-06-10T11:58:40;6.00;;;5.40;;
6177;SDS011;3122;48.208;11.174;2023-06-10T12:03:45;6.73;;;6.13;;
6177;SDS011;3122;48.208;11.174;2023-06-10T12:08:45;6.20;;;5.60;;
6177;SDS011;3122;48.208;11.174;2023-06-10T12:13:46;6.73;;;5.70;;
6177;SDS011;3122;48.208;11.174;2023-06-10T12:18:48;6.23;;;5.73;;
6177;SDS011;3122;48.208;11.174;2023-06-10T12:29:17;5.90;;;5.50;;
6177;SDS011;3122;48.208;11.174;2023-06-10T12:34:27;6.20;;;5.60;;
6177;SDS011;3122;48.208;11.174;2023-06-10T12:39:29;5.97;;;5.37;;
6177;SDS011;3122;48.208;11.174;2023-06-10T12:44:34;6.00;;;5.50;;
6177;SDS011;3122;48.208;11.174;2023-06-10T12:49:36;6.77;;;6.27;;
6177;SDS011;3122;48.208;11.174;2023-06-10T12:54:37;8.20;;;6.40;;
6177;SDS011;3122;48.208;11.174;2023-06-10T12:59:37;8.83;;;7.93;;
6177;SDS011;3122;48.208;11.174;2023-06-10T13:04:38;7.60;;;7.00;;
6177;SDS011;3122;48.208;11.174;2023-06-10T13:09:39;7.17;;;6.57;;
6177;SDS011;3122;48.208;11.174;2023-06-10T13:14:39;7.20;;;6.57;;
6177;SDS011;3122;48.208;11.174;2023-06-10T13:19:40;6.60;;;6.00;;
6177;SDS011;3122;48.208;11.174;2023-06-10T13:24:41;6.63;;;5.73;;
6177;SDS011;3122;48.208;11.174;2023-06-10T13:29:43;6.87;;;6.37;;
6177;SDS011;3122;48.208;11.174;2023-06-10T13:34:44;7.00;;;6.40;;
6177;SDS011;3122;48.208;11.174;2023-06-10T13:39:45;6.70;;;6.03;;
6177;SDS011;3122;48.208;11.174;2023-06-10T13:44:50;7.60;;;6.80;;
6177;SDS011;3122;48.208;11.174;2023-06-10T13:49:51;6.67;;;6.17;;
6177;SDS011;3122;48.208;11.174;2023-06-10T13:54:52;7.63;;;5.80;;
6177;SDS011;3122;48.208;11.174;2023-06-10T13:59:52;6.93;;;6.33;;
6177;SDS011;3122;48.208;11.174;2023-06-10T14:04:53;6.17;;;5.67;;
6177;SDS011;3122;48.208;11.174;2023-06-10T14:09:53;6.87;;;6.27;;
6177;SDS011;3122;48.208;11.174;2023-06-10T14:14:55;6.80;;;6.20;;
6177;SDS011;3122;48.208;11.174;2023-06-10T14:19:56;7.03;;;6.43;;
6177;SDS011;3122;48.208;11.174;2023-06-10T14:24:56;7.53;;;6.70;;
6177;SDS011;3122;48.208;11.174;2023-06-10T14:29:57;7.30;;;6.70;;
6177;SDS011;3122;48.208;11.174;2023-06-10T14:34:57;7.43;;;6.73;;
6177;SDS011;3122;48.208;11.174;2023-06-10T14:39:58;7.33;;;6.70;;
6177;SDS011;3122;48.208;11.174;2023-06-10T14:44:58;5.60;;;5.20;;
6177;SDS011;3122;48.208;11.174;2023-06-10T14:49:59;6.70;;;6.10;;
6177;SDS011;3122;48.208;11.174;2023-06-10T14:54:59;5.67;;;5.27;;
6177;SDS011;3122;48.208;11.174;2023-06-10T15:00:00;5.40;;;4.87;;
6177;SDS011;3122;48.208;11.174;2023-06-10T15:05:01;5.60;;;5.10;;
6177;SDS011;3122;48.208;11.174;2023-06-10T15:10:01;5.63;;;5.03;;
6177;SDS011;3122;48.208;11.174;2023-06-10T15:15:02;6.97;;;6.00;;
6177;SDS011;3122;48.208;11.174;2023-06-10T15:20:03;6.10;;;5.60;;
6177;SDS011;3122;48.208;11.174;2023-06-10T15:25:05;13.20;;;11.80;;
6177;SDS011;3122;48.208;11.174;2023-06-10T15:30:06;11.47;;;9.87;;
6177;SDS011;3122;48.208;11.174;2023-06-10T15:35:07;35.13;;;27.40;;
6177;SDS011;3122;48.208;11.174;2023-06-10T15:40:08;19.67;;;16.30;;
6177;SDS011;3122;48.208;11.174;2023-06-10T15:45:09;11.93;;;10.77;;
6177;SDS011;3122;48.208;11.174;2023-06-10T15:50:10;8.40;;;7.60;;
6177;SDS011;3122;48.208;11.174;2023-06-10T15:55:10;5.20;;;4.80;;
6177;SDS011;3122;48.208;11.174;2023-06-10T16:00:11;5.90;;;5.30;;
6177;SDS011;3122;48.208;11.174;2023-06-10T16:05:12;4.93;;;4.53;;
6177;SDS011;3122;48.208;11.174;2023-06-10T16:10:13;5.17;;;4.70;;
6177;SDS011;3122;48.208;11.174;2023-06-10T16:15:13;6.43;;;5.83;;
6177;SDS011;3122;48.208;11.174;2023-06-10T16:20:14;6.90;;;5.23;;
6177;SDS011;3122;48.208;11.174;2023-06-10T16:25:14;6.20;;;5.70;;
6177;SDS011;3122;48.208;11.174;2023-06-10T16:30:15;4.60;;;4.30;;
6177;SDS011;3122;48.208;11.174;2023-06-10T16:35:16;5.40;;;5.00;;
6177;SDS011;3122;48.208;11.174;2023-06-10T16:40:16;5.97;;;5.47;;
6177;SDS011;3122;48.208;11.174;2023-06-10T16:45:17;7.20;;;5.40;;
6177;SDS011;3122;48.208;11.174;2023-06-10T16:50:18;5.20;;;4.80;;
6177;SDS011;3122;48.208;11.174;2023-06-10T16:55:18;5.60;;;5.20;;
6177;SDS011;3122;48.208;11.174;2023-06-10T17:00:19;6.00;;;5.50;;
6177;SDS011;3122;48.208;11.174;2023-06-10T17:05:19;5.03;;;4.63;;
6177;SDS011;3122;48.208;11.174;2023-06-10T17:10:20;5.20;;;4.67;;
6177;SDS011;3122;48.208;11.174;2023-06-10T17:15:20;5.03;;;4.50;;
6177;SDS011;3122;48.208;11.174;2023-06-10T17:20:21;5.80;;;5.37;;
6177;SDS011;3122;48.208;11.174;2023-06-10T17:25:22;5.30;;;4.90;;
6177;SDS011;3122;48.208;11.174;2023-06-10T17:30:23;6.73;;;5.10;;
6177;SDS011;3122;48.208;11.174;2023-06-10T17:35:24;6.40;;;5.53;;
6177;SDS011;3122;48.208;11.174;2023-06-10T17:40:25;5.60;;;5.20;;
6177;SDS011;3122;48.208;11.174;2023-06-10T17:45:25;5.00;;;4.57;;
6177;SDS011;3122;48.208;11.174;2023-06-10T17:50:26;7.13;;;6.53;;
6177;SDS011;3122;48.208;11.174;2023-06-10T17:55:28;5.97;;;5.37;;
6177;SDS011;3122;48.208;11.174;2023-06-10T18:00:28;6.33;;;5.53;;
6177;SDS011;3122;48.208;11.174;2023-06-10T18:05:29;6.00;;;5.50;;
6177;SDS011;3122;48.208;11.174;2023-06-10T18:10:29;6.40;;;5.80;;
6177;SDS011;3122;48.208;11.174;2023-06-10T18:15:30;6.50;;;5.90;;
6177;SDS011;3122;48.208;11.174;2023-06-10T18:20:31;6.73;;;6.17;;
6177;SDS011;3122;48.208;11.174;2023-06-10T18:25:31;6.63;;;5.37;;
6177;SDS011;3122;48.208;11.174;2023-06-10T18:30:32;5.97;;;5.47;;
6177;SDS011;3122;48.208;11.174;2023-06-10T18:35:32;6.27;;;5.77;;
6177;SDS011;3122;48.208;11.174;2023-06-10T18:40:33;6.10;;;5.60;;
6177;SDS011;3122;48.208;11.174;2023-06-10T18:45:33;6.37;;;5.77;;
6177;SDS011;3122;48.208;11.174;2023-06-10T18:50:34;6.50;;;6.00;;
6177;SDS011;3122;48.208;11.174;2023-06-10T18:55:35;7.10;;;6.40;;
6177;SDS011;3122;48.208;11.174;2023-06-10T19:00:38;7.43;;;6.73;;
6177;SDS011;3122;48.208;11.174;2023-06-10T19:05:39;6.40;;;5.80;;
6177;SDS011;3122;48.208;11.174;2023-06-10T19:10:40;6.87;;;6.27;;
6177;SDS011;3122;48.208;11.174;2023-06-10T19:15:40;6.90;;;6.27;;
6177;SDS011;3122;48.208;11.174;2023-06-10T19:20:41;6.30;;;5.80;;
6177;SDS011;3122;48.208;11.174;2023-06-10T19:25:42;7.30;;;6.60;;
6177;SDS011;3122;48.208;11.174;2023-06-10T19:30:43;6.90;;;6.20;;
6177;SDS011;3122;48.208;11.174;2023-06-10T19:35:43;6.47;;;5.87;;
6177;SDS011;3122;48.208;11.174;2023-06-10T19:40:44;7.40;;;6.80;;
6177;SDS011;3122;48.208;11.174;2023-06-10T19:45:45;7.03;;;5.93;;
6177;SDS011;3122;48.208;11.174;2023-06-10T19:50:45;6.93;;;6.30;;
6177;SDS011;3122;48.208;11.174;2023-06-10T19:55:46;7.00;;;6.40;;
6177;SDS011;3122;48.208;11.174;2023-06-10T20:00:46;9.27;;;7.70;;
6177;SDS011;3122;48.208;11.174;2023-06-10T20:05:47;7.10;;;6.40;;
6177;SDS011;3122;48.208;11.174;2023-06-10T20:10:48;7.60;;;6.80;;
6177;SDS011;3122;48.208;11.174;2023-06-10T20:15:48;7.53;;;6.77;;
6177;SDS011;3122;48.208;11.174;2023-06-10T20:20:49;9.97;;;7.00;;
6177;SDS011;3122;48.208;11.174;2023-06-10T20:25:50;8.00;;;7.20;;
6177;SDS011;3122;48.208;11.174;2023-06-10T20:30:50;8.17;;;7.27;;
6177;SDS011;3122;48.208;11.174;2023-06-10T20:35:51;9.50;;;8.53;;
6177;SDS011;3122;48.208;11.174;2023-06-10T20:40:51;9.40;;;8.40;;
6177;SDS011;3122;48.208;11.174;2023-06-10T20:45:52;10.77;;;9.20;;
6177;SDS011;3122;48.208;11.174;2023-06-10T20:50:53;8.63;;;7.83;;
6177;SDS011;3122;48.208;11.174;2023-06-10T20:55:53;10.03;;;8.40;;
6177;SDS011;3122;48.208;11.174;2023-06-10T21:00:54;9.87;;;8.80;;
6177;SDS011;3122;48.208;11.174;2023-06-10T21:05:54;9.43;;;8.43;;
6177;SDS011;3122;48.208;11.174;2023-06-10T21:10:55;9.73;;;8.70;;
6177;SDS011;3122;48.208;11.174;2023-06-10T21:15:55;9.80;;;8.80;;
6177;SDS011;3122;48.208;11.174;2023-06-10T21:20:56;10.60;;;8.73;;
6177;SDS011;3122;48.208;11.174;2023-06-10T21:25:57;9.80;;;8.80;;
6177;SDS011;3122;48.208;11.174;2023-06-10T21:30:57;10.13;;;8.00;;
6177;SDS011;3122;48.208;11.174;2023-06-10T21:35:58;12.07;;;9.37;;
6177;SDS011;3122;48.208;11.174;2023-06-10T21:40:59;9.83;;;8.93;;
6177;SDS011;3122;48.208;11.174;2023-06-10T21:45:59;9.93;;;8.93;;
6177;SDS011;3122;48.208;11.174;2023-06-10T21:51:00;9.53;;;8.63;;
6177;SDS011;3122;48.208;11.174;2023-06-10T21:56:00;9.10;;;8.20;;
6177;SDS011;3122;48.208;11.174;2023-06-10T22:01:01;12.30;;;8.83;;
6177;SDS011;3122;48.208;11.174;2023-06-10T22:06:01;8.80;;;8.00;;
6177;SDS011;3122;48.208;11.174;2023-06-10T22:11:02;10.07;;;9.07;;
6177;SDS011;3122;48.208;11.174;2023-06-10T22:16:03;9.97;;;8.30;;
6177;SDS011;3122;48.208;11.174;2023-06-10T22:21:03;10.07;;;9.00;;
6177;SDS011;3122;48.208;11.174;2023-06-10T22:26:04;10.00;;;8.90;;
6177;SDS011;3122;48.208;11.174;2023-06-10T22:31:05;13.60;;;9.10;;
6177;SDS011;3122;48.208;11.174;2023-06-10T22:36:07;10.10;;;9.10;;
6177;SDS011;3122;48.208;11.174;2023-06-10T22:41:08;9.20;;;8.30;;
6177;SDS011;3122;48.208;11.174;2023-06-10T22:46:09;9.70;;;8.80;;
6177;SDS011;3122;48.208;11.174;2023-06-10T22:51:09;10.23;;;9.17;;
6177;SDS011;3122;48.208;11.174;2023-06-10T22:56:10;9.47;;;8.57;;
6177;SDS011;3122;48.208;11.174;2023-06-10T23:01:10;10.17;;;9.10;;
6177;SDS011;3122;48.208;11.174;2023-06-10T23:06:11;9.10;;;8.20;;
6177;SDS011;3122;48.208;11.174;2023-06-10T23:11:12;10.03;;;9.03;;
6177;SDS011;3122;48.208;11.174;2023-06-10T23:16:12;9.90;;;8.90;;
6177;SDS011;3122;48.208;11.174;2023-06-10T23:21:13;10.00;;;9.03;;
6177;SDS011;3122;48.208;11.174;2023-06-10T23:26:14;10.30;;;9.30;;
6177;SDS011;3122;48.208;11.174;2023-06-10T23:31:15;9.80;;;8.77;;
6177;SDS011;3122;48.208;11.174;2023-06-10T23:36:15;10.10;;;9.10;;
6177;SDS011;3122;48.208;11.174;2023-06-10T23:41:16;9.77;;;8.77;;
6177;SDS011;3122;48.208;11.174;2023-06-10T23:46:17;9.13;;;8.33;;
6177;SDS011;3122;48.208;11.174;2023-06-10T23:51:17;9.93;;;8.83;;
6177;SDS011;3122;48.208;11.174;2023-06-10T23:56:18;9.60;;;8.03;;
